Time;durP1;ratioP1;P1;durP2;ratioP2;P2;SDS_P1;SDS_P2;PMS_P1;PMS_P2;Temp;Humidity;BMP_temperature;BMP_pressure;BME280_temperature;BME280_humidity;BME280_pressure;Samples;Min_cycle;Max_cycle;Signal;HPM_P1;HPM_P2
2022/11/12 00:02:16;;;;;;;12.05;9.23;;;;;;;7.27;76.10;103057.81;5114917;28;20024;-62
2022/11/12 00:04:42;;;;;;;14.35;9.95;;;;;;;7.31;76.24;103060.63;5114841;28;20516;-61
2022/11/12 00:07:07;;;;;;;15.00;11.02;;;;;;;7.28;75.98;103058.75;5114782;28;20032;-61
2022/11/12 00:09:33;;;;;;;12.77;9.70;;;;;;;7.30;76.44;103059.72;5114727;28;20024;-62
2022/11/12 00:11:58;;;;;;;12.32;9.50;;;;;;;7.27;75.53;103065.69;5114701;28;20111;-61
2022/11/12 00:14:23;;;;;;;15.27;10.50;;;;;;;7.22;76.80;103082.94;5114600;28;20031;-61
2022/11/12 00:16:49;;;;;;;16.67;10.88;;;;;;;7.25;78.76;103075.22;5114548;28;20465;-62
2022/11/12 00:19:14;;;;;;;19.10;11.45;;;;;;;7.36;81.14;103067.97;5114308;28;20125;-61
2022/11/12 00:21:45;;;;;;;19.55;11.60;;;;;;;7.41;80.83;103069.19;5113213;28;20031;-61
2022/11/12 00:24:11;;;;;;;14.90;10.52;;;;;;;7.43;78.94;103064.00;5114739;28;20044;-61
2022/11/12 00:26:36;;;;;;;19.10;11.27;;;;;;;7.48;79.61;103076.59;5114476;27;20032;-61
2022/11/12 00:29:01;;;;;;;14.07;10.13;;;;;;;7.46;80.89;103072.97;5114269;28;20058;-61
2022/11/12 00:31:27;;;;;;;14.63;10.55;;;;;;;7.41;81.14;103081.38;5114301;28;20032;-61
2022/11/12 00:33:53;;;;;;;16.08;10.05;;;;;;;7.40;80.85;103076.97;5114272;28;20020;-61
2022/11/12 00:36:19;;;;;;;15.35;10.43;;;;;;;7.43;81.24;103079.78;5114221;28;20028;-62
2022/11/12 00:38:44;;;;;;;18.08;10.10;;;;;;;7.40;80.64;103087.47;5113256;28;20028;-62
2022/11/12 00:41:10;;;;;;;15.70;9.77;;;;;;;7.42;80.77;103084.13;5114083;28;20089;-61
2022/11/12 00:43:35;;;;;;;14.48;10.00;;;;;;;7.48;81.94;103087.13;5114300;28;20032;-62
2022/11/12 00:46:00;;;;;;;15.05;9.73;;;;;;;7.52;81.50;103077.69;5113851;28;20377;-61
2022/11/12 00:48:26;;;;;;;13.63;9.35;;;;;;;7.52;79.50;103078.59;5114038;28;20111;-61
2022/11/12 00:50:59;;;;;;;13.65;9.35;;;;;;;7.50;78.85;103063.56;5113841;28;20032;-61
2022/11/12 00:53:24;;;;;;;13.52;9.25;;;;;;;7.46;77.68;103077.34;5114138;28;20388;-62
2022/11/12 00:55:49;;;;;;;12.18;9.07;;;;;;;7.43;78.85;103064.91;5113736;28;20027;-62
2022/11/12 00:58:15;;;;;;;14.50;9.77;;;;;;;7.42;80.24;103070.97;5113732;28;20035;-62
2022/11/12 01:00:40;;;;;;;15.85;9.32;;;;;;;7.40;81.38;103071.69;5113645;28;20036;-61
2022/11/12 01:03:05;;;;;;;12.80;8.75;;;;;;;7.39;79.65;103070.78;5113990;28;20469;-62
2022/11/12 01:05:32;;;;;;;13.32;9.18;;;;;;;7.38;80.95;103063.72;5113723;28;20031;-61
2022/11/12 01:07:58;;;;;;;13.35;9.07;;;;;;;7.40;80.68;103058.53;5113783;28;20031;-62
2022/11/12 01:10:23;;;;;;;11.93;8.43;;;;;;;7.43;81.48;103067.53;5113770;28;20511;-62
2022/11/12 01:12:48;;;;;;;14.80;8.75;;;;;;;7.45;81.29;103059.72;5113748;28;20059;-61
2022/11/12 01:15:14;;;;;;;12.73;9.05;;;;;;;7.54;80.64;103070.81;5113630;28;20031;-61
2022/11/12 01:17:39;;;;;;;14.90;9.40;;;;;;;7.56;80.98;103066.53;5113199;28;20054;-61
2022/11/12 01:20:05;;;;;;;17.17;9.10;;;;;;;7.60;80.18;103070.25;5113603;28;20507;-61
2022/11/12 01:22:30;;;;;;;12.35;8.48;;;;;;;7.59;79.11;103058.81;5113429;28;20556;-62
2022/11/12 01:24:56;;;;;;;14.57;8.82;;;;;;;7.66;80.24;103052.19;5113686;28;20098;-63
2022/11/12 01:27:21;;;;;;;13.70;9.02;;;;;;;7.69;79.09;103057.63;5113293;28;20081;-61
2022/11/12 01:29:47;;;;;;;12.13;8.68;;;;;;;7.70;79.77;103062.97;5113449;28;20039;-62
2022/11/12 01:32:12;;;;;;;11.75;8.32;;;;;;;7.67;77.86;103057.53;5113390;28;20058;-61
2022/11/12 01:34:37;;;;;;;13.30;8.75;;;;;;;7.61;78.61;103054.53;5113430;28;20024;-61
2022/11/12 01:37:03;;;;;;;12.95;8.20;;;;;;;7.58;78.53;103051.75;5113263;28;20035;-62
2022/11/12 01:39:28;;;;;;;12.82;8.60;;;;;;;7.53;78.58;103068.97;5113390;28;20102;-62
2022/11/12 01:41:53;;;;;;;13.65;8.35;;;;;;;7.51;78.57;103063.63;5113305;28;20024;-61
2022/11/12 01:44:22;;;;;;;17.00;8.75;;;;;;;7.50;77.70;103061.81;5113261;28;20357;-62
2022/11/12 01:47:10;;;;;;;14.70;8.80;;;;;;;7.55;78.34;103054.19;5113191;28;20028;-62
2022/11/12 01:49:46;;;;;;;12.88;8.07;;;;;;;7.47;76.42;103047.56;5114569;28;20039;-61
2022/11/12 01:52:21;;;;;;;10.45;7.85;;;;;;;7.33;77.59;103053.75;5117704;28;20035;-62
2022/11/12 01:54:50;;;;;;;12.75;7.47;;;;;;;7.20;77.66;103037.25;5117699;28;20031;-62
2022/11/12 01:57:22;;;;;;;9.98;7.53;;;;;;;7.16;77.71;103045.75;5116976;28;20020;-61
2022/11/12 01:59:50;;;;;;;10.95;7.45;;;;;;;7.10;77.17;103049.72;5117332;27;20542;-62
2022/11/12 02:02:16;;;;;;;11.35;7.38;;;;;;;7.00;77.22;103057.06;5117191;28;20485;-61
2022/11/12 02:04:42;;;;;;;10.02;7.35;;;;;;;6.90;77.37;103053.81;5117211;28;20076;-61
2022/11/12 02:07:09;;;;;;;10.50;7.03;;;;;;;6.82;77.62;103047.16;5117396;28;20030;-61
2022/11/12 02:09:35;;;;;;;9.65;7.50;;;;;;;6.84;77.87;103051.69;5116993;28;20469;-62
2022/11/12 02:12:01;;;;;;;12.43;7.68;;;;;;;6.91;78.19;103048.63;5116962;28;20073;-65
2022/11/12 02:14:27;;;;;;;9.40;6.50;;;;;;;6.97;78.13;103045.44;5117122;28;20403;-62
2022/11/12 02:16:52;;;;;;;7.65;6.18;;;;;;;6.95;77.54;103044.47;5116849;28;20081;-62
2022/11/12 02:19:18;;;;;;;9.88;6.60;;;;;;;6.95;77.42;103048.00;5116395;28;20051;-62
2022/11/12 02:21:44;;;;;;;11.77;7.03;;;;;;;6.90;76.86;103043.28;5117086;28;20031;-62
2022/11/12 02:24:12;;;;;;;10.85;6.70;;;;;;;6.90;77.59;103049.44;5115623;28;20085;-62
2022/11/12 02:26:42;;;;;;;7.90;5.95;;;;;;;6.74;76.21;103055.47;5116485;28;20020;-61
2022/11/12 02:29:07;;;;;;;8.45;6.10;;;;;;;6.57;76.43;103052.63;5116639;28;20035;-62
2022/11/12 02:31:33;;;;;;;9.95;6.47;;;;;;;6.39;76.89;103060.25;5116644;28;20081;-62
2022/11/12 02:33:58;;;;;;;10.27;7.03;;;;;;;6.20;77.74;103052.91;5116750;28;20080;-61
2022/11/12 02:36:24;;;;;;;12.93;7.22;;;;;;;6.06;78.67;103054.66;5116458;28;20028;-62
2022/11/12 02:38:50;;;;;;;12.77;7.45;;;;;;;6.01;79.22;103043.88;5116437;28;20027;-61
2022/11/12 02:41:15;;;;;;;10.48;7.00;;;;;;;6.04;79.32;103045.78;5116483;28;20035;-61
2022/11/12 02:43:41;;;;;;;9.95;6.65;;;;;;;6.10;78.78;103047.88;5116411;28;20023;-61
2022/11/12 02:46:06;;;;;;;10.43;6.82;;;;;;;6.10;78.26;103048.78;5116675;28;20483;-62
2022/11/12 02:48:32;;;;;;;9.05;6.43;;;;;;;6.09;77.85;103041.75;5116330;28;20031;-61
2022/11/12 02:50:57;;;;;;;11.32;6.75;;;;;;;6.09;77.91;103046.09;5116285;28;20031;-62
2022/11/12 02:53:23;;;;;;;9.55;6.60;;;;;;;6.10;77.90;103045.25;5116216;28;20137;-60
2022/11/12 02:55:48;;;;;;;11.10;7.00;;;;;;;6.08;78.39;103037.31;5116167;28;20492;-63
2022/11/12 02:58:13;;;;;;;12.20;7.45;;;;;;;6.10;80.05;103035.66;5114722;28;20116;-62
2022/11/12 03:00:39;;;;;;;10.35;7.03;;;;;;;6.19;79.97;103024.84;5115529;28;20020;-62
2022/11/12 03:03:04;;;;;;;12.70;7.88;;;;;;;6.25;79.98;103023.53;5115783;28;20047;-61
2022/11/12 03:05:32;;;;;;;10.98;7.30;;;;;;;6.27;79.19;103024.53;5115973;28;20106;-61
2022/11/12 03:07:59;;;;;;;9.88;6.85;;;;;;;6.30;76.45;103030.78;5115983;28;20122;-61
2022/11/12 03:10:25;;;;;;;10.45;7.63;;;;;;;6.31;77.86;103032.59;5115839;28;20040;-62
2022/11/12 03:12:51;;;;;;;11.88;7.60;;;;;;;6.34;79.17;103031.09;5115804;28;20494;-62
2022/11/12 03:15:17;;;;;;;9.90;7.15;;;;;;;6.32;78.40;103032.69;5115727;28;20028;-61
2022/11/12 03:17:43;;;;;;;12.43;7.88;;;;;;;6.27;79.14;103037.66;5115698;28;20108;-62
2022/11/12 03:20:09;;;;;;;10.82;6.75;;;;;;;6.23;78.82;103042.63;5115578;28;20083;-62
2022/11/12 03:22:36;;;;;;;11.35;7.25;;;;;;;6.25;79.72;103038.34;5115702;27;20027;-61
2022/11/12 03:25:01;;;;;;;9.95;7.30;;;;;;;6.30;79.59;103034.31;5122664;27;20023;-61
2022/11/12 03:27:26;;;;;;;9.27;6.65;;;;;;;6.34;79.36;103040.66;5136003;27;20025;-62
2022/11/12 03:29:52;;;;;;;10.10;6.82;;;;;;;6.35;78.11;103047.75;5136045;27;20076;-61
2022/11/12 03:32:17;;;;;;;10.00;7.00;;;;;;;6.33;79.09;103046.72;5136100;27;20391;-61
2022/11/12 03:34:42;;;;;;;12.02;7.40;;;;;;;6.27;79.08;103042.91;5136061;27;20058;-61
2022/11/12 03:37:08;;;;;;;12.38;7.63;;;;;;;6.36;81.21;103050.44;5135934;27;20051;-61
2022/11/12 03:39:35;;;;;;;10.70;6.63;;;;;;;6.31;78.92;103056.22;5136167;27;20034;-61
2022/11/12 03:42:00;;;;;;;14.18;7.13;;;;;;;6.40;80.56;103056.81;5134532;27;20034;-61
2022/11/12 03:44:25;;;;;;;13.02;7.32;;;;;;;6.44;80.77;103041.34;5135859;27;20015;-61
2022/11/12 03:46:51;;;;;;;10.45;6.82;;;;;;;6.49;81.79;103042.53;5134551;27;20106;-62
2022/11/12 03:49:16;;;;;;;10.90;7.20;;;;;;;6.56;82.77;103045.56;5134507;27;20072;-62
2022/11/12 03:51:41;;;;;;;13.02;7.50;;;;;;;6.62;81.64;103045.94;5135670;27;20023;-61
2022/11/12 03:54:07;;;;;;;12.45;7.38;;;;;;;6.66;81.80;103050.56;5135712;27;20098;-61
2022/11/12 03:56:32;;;;;;;10.30;7.25;;;;;;;6.63;81.08;103042.47;5134124;27;20043;-61
2022/11/12 03:58:58;;;;;;;11.35;7.03;;;;;;;6.55;80.29;103049.88;5134234;27;20036;-61
2022/11/12 04:01:23;;;;;;;8.52;6.55;;;;;;;6.51;80.90;103051.44;5135478;27;20098;-61
2022/11/12 04:03:48;;;;;;;11.63;8.00;;;;;;;6.49;82.52;103049.50;5134136;27;20106;-61
2022/11/12 04:08:58;;;;;;;11.40;7.07;;;;;;;6.54;81.95;103050.69;5135640;27;20041;-61
2022/11/12 04:11:23;;;;;;;15.63;7.60;;;;;;;6.50;81.18;103041.72;5133963;27;20019;-62
2022/11/12 04:13:49;;;;;;;11.77;6.63;;;;;;;6.47;80.44;103044.16;5133879;27;20055;-61
2022/11/12 04:21:49;;;;;;;12.60;7.20;;;;;;;6.69;81.79;103028.03;5135122;27;20096;-61
2022/11/12 04:27:18;;;;;;;10.60;7.18;;;;;;;6.84;81.34;103012.25;5135143;27;20038;-62
2022/11/12 04:32:30;;;;;;;12.40;7.32;;;;;;;6.90;79.87;103019.63;5135175;27;20092;-61
2022/11/12 04:34:56;;;;;;;13.02;7.85;;;;;;;6.90;80.13;103006.50;5134775;27;20037;-61
2022/11/12 04:37:24;;;;;;;9.88;6.88;;;;;;;6.90;80.14;103020.53;5134728;27;20023;-62
2022/11/12 04:39:50;;;;;;;12.50;7.57;;;;;;;6.91;78.99;103010.94;5134640;27;20027;-61
2022/11/12 04:45:01;;;;;;;11.27;7.53;;;;;;;6.69;78.16;103019.22;5134956;27;20042;-61
2022/11/12 04:47:35;;;;;;;12.10;7.10;;;;;;;6.64;78.51;103012.78;5134583;27;20031;-61
2022/11/12 04:50:04;;;;;;;10.40;6.80;;;;;;;6.57;78.50;103015.84;5134596;27;20103;-61
2022/11/12 04:52:30;;;;;;;10.52;6.85;;;;;;;6.46;79.15;103025.66;5134686;27;20387;-61
2022/11/12 04:54:56;;;;;;;11.98;6.70;;;;;;;6.37;79.40;103012.88;5134315;27;20055;-61
2022/11/12 04:57:22;;;;;;;11.25;7.32;;;;;;;6.29;78.28;103016.72;5134316;27;20020;-61
2022/11/12 04:59:47;;;;;;;9.15;6.60;;;;;;;6.25;78.92;103019.97;5134498;27;20027;-66
2022/11/12 05:02:14;;;;;;;10.80;6.30;;;;;;;6.21;77.95;103015.34;5134390;27;20100;-61
2022/11/12 05:04:39;;;;;;;11.65;7.28;;;;;;;6.30;79.21;103013.31;5134294;27;20481;-61
2022/11/12 05:07:04;;;;;;;11.30;7.60;;;;;;;6.35;79.35;102995.22;5134320;27;20034;-61
2022/11/12 05:09:30;;;;;;;10.43;7.03;;;;;;;6.44;80.29;102998.41;5134170;27;20031;-61
2022/11/12 05:11:56;;;;;;;12.88;7.25;;;;;;;6.49;79.55;102995.25;5132992;27;20033;-62
2022/11/12 05:14:22;;;;;;;12.35;6.60;;;;;;;6.52;78.35;102997.19;5134457;27;20310;-61
2022/11/12 05:16:47;;;;;;;10.43;6.70;;;;;;;6.42;78.06;102998.31;5134150;27;20091;-61
2022/11/12 05:19:13;;;;;;;10.38;6.72;;;;;;;6.35;78.24;103001.38;5133820;27;20043;-62
2022/11/12 05:24:23;;;;;;;12.88;7.45;;;;;;;6.23;79.10;102995.34;5133780;27;20080;-62
2022/11/12 05:26:49;;;;;;;10.68;6.43;;;;;;;6.18;77.95;102991.53;5133914;27;20039;-62
2022/11/12 05:29:14;;;;;;;9.38;6.28;;;;;;;6.17;77.54;102990.63;5134018;27;20102;-61
2022/11/12 05:31:39;;;;;;;9.70;6.03;;;;;;;6.22;78.28;103006.69;5132635;27;20047;-61
2022/11/12 05:34:05;;;;;;;10.20;6.78;;;;;;;6.24;78.94;102994.53;5134010;27;20118;-61
2022/11/12 05:36:31;;;;;;;10.77;7.43;;;;;;;6.27;78.70;102990.41;5132715;28;20030;-61
2022/11/12 05:38:56;;;;;;;10.90;6.88;;;;;;;6.23;78.59;102997.97;5134129;27;20019;-61
2022/11/12 05:41:21;;;;;;;11.40;6.57;;;;;;;6.22;78.27;102986.56;5133854;27;20076;-62
2022/11/12 05:43:47;;;;;;;12.40;6.72;;;;;;;6.10;77.48;102990.16;5133971;27;20030;-61
2022/11/12 05:46:12;;;;;;;9.00;5.75;;;;;;;5.96;77.66;102991.91;5133863;27;20362;-62
2022/11/12 05:48:37;;;;;;;8.63;5.70;;;;;;;5.77;78.01;102988.03;5133767;27;20055;-61
2022/11/12 05:51:03;;;;;;;7.80;5.88;;;;;;;5.69;79.26;102981.38;5133838;27;20098;-61
2022/11/12 05:53:28;;;;;;;8.15;5.75;;;;;;;5.56;78.84;102991.88;5133784;27;20019;-61
2022/11/12 05:55:59;;;;;;;8.27;6.20;;;;;;;5.50;79.07;102991.50;5133511;27;20038;-61
2022/11/12 05:58:24;;;;;;;11.85;6.80;;;;;;;5.49;81.13;102998.47;5132400;28;20437;-62
2022/11/12 06:00:50;;;;;;;11.63;7.10;;;;;;;5.50;81.63;102997.66;5133766;27;20055;-61
2022/11/12 06:03:15;;;;;;;10.23;6.25;;;;;;;5.62;82.31;102992.31;5133697;27;20038;-61
2022/11/12 06:05:40;;;;;;;11.63;7.00;;;;;;;5.72;82.00;102992.09;5133638;27;20031;-61
2022/11/12 06:08:06;;;;;;;11.55;6.70;;;;;;;5.77;81.29;102982.78;5133626;27;20031;-61
2022/11/12 06:10:32;;;;;;;12.13;7.38;;;;;;;5.79;81.76;102982.91;5133734;27;20027;-61
2022/11/12 06:12:57;;;;;;;8.90;6.30;;;;;;;5.82;79.56;102993.56;5133629;27;20513;-61
2022/11/12 06:15:26;;;;;;;8.88;6.70;;;;;;;5.82;80.54;102996.19;5133810;27;20023;-61
2022/11/12 06:17:54;;;;;;;11.77;7.00;;;;;;;5.85;81.12;102990.25;5133519;27;20462;-61
2022/11/12 06:20:21;;;;;;;9.98;6.68;;;;;;;5.87;79.60;102993.91;5133354;28;20047;-61
2022/11/12 06:22:46;;;;;;;10.55;6.40;;;;;;;5.86;78.88;103003.47;5133770;27;20019;-61
2022/11/12 06:25:12;;;;;;;11.65;7.25;;;;;;;5.94;80.49;103002.28;5133500;27;20027;-61
2022/11/12 06:27:38;;;;;;;11.82;6.07;;;;;;;5.96;78.48;103002.41;5131961;28;20032;-62
2022/11/12 06:30:05;;;;;;;13.07;6.90;;;;;;;6.01;79.76;103000.97;5133431;27;20068;-62
2022/11/12 06:32:30;;;;;;;13.55;6.72;;;;;;;5.98;78.45;103006.00;5133313;27;20050;-61
2022/11/12 06:34:56;;;;;;;10.98;7.35;;;;;;;5.88;79.52;103011.47;5133230;27;20020;-64
2022/11/12 06:37:21;;;;;;;12.23;7.53;;;;;;;5.79;79.66;103017.00;5134661;27;20102;-62
2022/11/12 06:39:47;;;;;;;11.00;6.75;;;;;;;5.69;79.36;103009.34;5137076;27;20072;-61
2022/11/12 06:42:13;;;;;;;10.15;7.18;;;;;;;5.64;80.45;103006.41;5137040;27;20032;-62
2022/11/12 06:44:38;;;;;;;8.57;6.32;;;;;;;5.62;79.70;103009.75;5137016;27;20023;-60
2022/11/12 06:47:04;;;;;;;12.43;6.93;;;;;;;5.62;80.21;103005.41;5136910;27;20428;-61
2022/11/12 06:49:29;;;;;;;10.27;6.65;;;;;;;5.70;80.65;103008.56;5135732;27;20485;-62
2022/11/12 06:51:55;;;;;;;10.80;6.50;;;;;;;5.74;80.70;103003.59;5136778;27;20054;-61
2022/11/12 06:54:20;;;;;;;11.65;7.00;;;;;;;5.76;80.22;103011.56;5136833;27;20110;-62
2022/11/12 06:56:46;;;;;;;9.77;6.40;;;;;;;5.72;79.91;103014.78;5136522;27;20047;-61
2022/11/12 06:59:11;;;;;;;14.00;7.38;;;;;;;5.59;81.17;103002.59;5136741;27;20028;-61
2022/11/12 07:01:37;;;;;;;10.75;6.35;;;;;;;5.61;80.38;103014.09;5136564;27;20410;-62
2022/11/12 07:04:02;;;;;;;16.92;6.95;;;;;;;5.61;80.82;103007.91;5136634;27;20019;-61
2022/11/12 07:06:28;;;;;;;10.52;6.93;;;;;;;5.72;81.74;103022.66;5136647;27;20551;-61
2022/11/12 07:08:53;;;;;;;11.07;7.00;;;;;;;5.72;81.23;103018.31;5136818;27;20035;-61
2022/11/12 07:11:19;;;;;;;13.52;6.97;;;;;;;5.77;81.06;103016.91;5136774;27;20031;-61
2022/11/12 07:13:45;;;;;;;9.68;6.47;;;;;;;5.78;80.77;103015.19;5136493;27;20019;-61
2022/11/12 07:16:12;;;;;;;10.82;7.10;;;;;;;5.82;80.81;103026.78;5136669;27;20026;-61
2022/11/12 07:18:38;;;;;;;11.23;6.95;;;;;;;5.88;80.70;103025.47;5136187;27;20061;-61
2022/11/12 07:21:04;;;;;;;11.40;6.22;;;;;;;5.84;78.87;103023.47;5136353;27;20035;-61
2022/11/12 07:23:31;;;;;;;11.85;6.45;;;;;;;5.85;80.82;103008.63;5136559;27;20114;-61
2022/11/12 07:26:02;;;;;;;11.00;6.90;;;;;;;5.92;81.24;103014.41;5136130;27;20023;-61
2022/11/12 07:28:28;;;;;;;12.57;6.63;;;;;;;5.96;80.88;103020.78;5136419;27;20024;-61
2022/11/12 07:30:59;;;;;;;11.00;6.60;;;;;;;5.99;81.18;103019.22;5136061;27;20015;-61
2022/11/12 07:33:25;;;;;;;13.13;6.90;;;;;;;6.03;81.06;103013.34;5136337;27;20080;-61
2022/11/12 07:36:01;;;;;;;10.30;6.78;;;;;;;6.21;81.74;103028.47;5135955;27;20117;-61
2022/11/12 07:38:28;;;;;;;12.88;8.10;;;;;;;6.30;81.58;103020.28;5135951;27;20061;-61
2022/11/12 07:41:00;;;;;;;11.18;6.95;;;;;;;6.35;81.53;103022.38;5136190;27;20081;-61
2022/11/12 07:43:26;;;;;;;11.65;7.10;;;;;;;6.44;81.13;103024.69;5135915;27;20023;-62
2022/11/12 07:45:52;;;;;;;12.32;7.30;;;;;;;6.56;81.09;103030.69;5136099;27;20035;-61
2022/11/12 07:48:17;;;;;;;11.60;7.55;;;;;;;6.71;80.89;103030.72;5135406;27;20031;-62
2022/11/12 07:50:43;;;;;;;10.77;7.70;;;;;;;6.78;80.79;103031.19;5135695;27;20027;-61
2022/11/12 07:53:08;;;;;;;10.52;7.38;;;;;;;6.78;80.79;103030.31;5135636;27;20099;-62
2022/11/12 07:55:33;;;;;;;13.32;7.45;;;;;;;6.80;81.29;103022.50;5135630;27;20422;-61
2022/11/12 07:57:59;;;;;;;11.88;7.55;;;;;;;6.93;80.67;103023.31;5135573;27;20027;-61
2022/11/12 08:00:24;;;;;;;11.38;7.47;;;;;;;7.26;82.11;103024.44;5135763;27;20023;-61
2022/11/12 08:02:49;;;;;;;12.77;7.93;;;;;;;7.51;80.69;103029.44;5134147;27;20473;-62
2022/11/12 08:05:15;;;;;;;11.75;7.93;;;;;;;7.81;80.65;103036.38;5135487;27;20091;-62
2022/11/12 08:07:40;;;;;;;10.98;7.28;;;;;;;8.05;78.83;103032.50;5135385;27;20468;-62
2022/11/12 08:10:07;;;;;;;11.52;7.55;;;;;;;8.26;78.88;103033.72;5133794;27;20061;-63
2022/11/12 08:12:32;;;;;;;15.15;7.53;;;;;;;8.41;77.63;103038.03;5134506;27;20031;-61
2022/11/12 08:14:57;;;;;;;12.93;8.00;;;;;;;8.60;77.00;103045.19;5134416;27;20215;-62
2022/11/12 08:17:23;;;;;;;12.52;7.90;;;;;;;8.67;76.15;103044.72;5134311;27;20023;-61
2022/11/12 08:19:48;;;;;;;11.77;7.57;;;;;;;8.88;76.33;103042.31;5134184;27;20047;-61
2022/11/12 08:22:14;;;;;;;14.45;8.38;;;;;;;9.10;75.16;103039.06;5134223;27;20060;-61
2022/11/12 08:24:39;;;;;;;14.95;7.95;;;;;;;9.35;74.63;103042.13;5134842;27;20431;-63
2022/11/12 08:27:05;;;;;;;13.93;8.35;;;;;;;9.60;73.82;103046.03;5133911;27;20521;-62
2022/11/12 08:29:30;;;;;;;11.88;8.10;;;;;;;9.83;72.05;103042.78;5134897;27;20023;-62
2022/11/12 08:31:55;;;;;;;12.63;7.97;;;;;;;10.13;72.94;103038.06;5134813;27;20488;-62
2022/11/12 08:34:21;;;;;;;13.43;7.88;;;;;;;10.45;71.67;103041.38;5133549;27;20031;-62
2022/11/12 08:36:48;;;;;;;13.50;8.35;;;;;;;10.68;70.57;103047.72;5133430;27;20076;-61
2022/11/12 08:39:13;;;;;;;13.63;8.13;;;;;;;10.92;70.10;103050.53;5134821;27;20480;-61
2022/11/12 08:41:38;;;;;;;14.88;8.82;;;;;;;10.83;67.84;103050.13;5135058;27;20023;-62
2022/11/12 08:44:04;;;;;;;15.48;8.38;;;;;;;11.01;68.70;103035.09;5134679;27;20383;-61
2022/11/12 08:46:29;;;;;;;18.38;9.65;;;;;;;11.22;68.11;103050.97;5134885;27;20429;-62
2022/11/12 08:48:55;;;;;;;13.60;8.57;;;;;;;11.66;68.31;103052.00;5134551;27;20544;-62
2022/11/12 08:51:20;;;;;;;14.90;8.65;;;;;;;12.12;66.72;103053.88;5134488;27;20035;-62
2022/11/12 08:53:46;;;;;;;13.93;8.38;;;;;;;12.52;65.12;103059.00;5134488;27;20033;-62
2022/11/12 08:56:11;;;;;;;16.73;9.45;;;;;;;12.55;62.73;103056.47;5134272;27;20471;-62
2022/11/12 08:58:37;;;;;;;16.38;9.68;;;;;;;12.80;64.02;103060.91;5133871;27;20380;-62
2022/11/12 09:01:06;;;;;;;19.65;9.77;;;;;;;12.99;63.62;103054.56;5134118;27;20110;-62
2022/11/12 09:03:32;;;;;;;14.30;8.73;;;;;;;13.32;61.60;103053.97;5134328;27;20488;-62
2022/11/12 09:06:02;;;;;;;15.88;9.50;;;;;;;13.66;61.65;103042.72;5134272;27;20030;-62
2022/11/12 09:08:27;;;;;;;18.10;9.05;;;;;;;14.25;59.99;103049.97;5134508;27;20016;-61
2022/11/12 09:10:52;;;;;;;14.90;8.27;;;;;;;14.60;58.46;103047.50;5134284;27;20076;-62
2022/11/12 09:13:18;;;;;;;13.45;7.35;;;;;;;14.86;58.36;103044.69;5134375;27;20023;-62
2022/11/12 09:15:44;;;;;;;11.68;7.63;;;;;;;14.99;58.08;103047.75;5132883;27;20523;-62
2022/11/12 09:18:14;;;;;;;11.82;7.15;;;;;;;15.03;57.22;103049.66;5134385;27;20047;-62
2022/11/12 09:20:40;;;;;;;11.07;7.43;;;;;;;15.21;58.01;103051.00;5134679;27;20043;-62
2022/11/12 09:23:09;;;;;;;12.05;7.53;;;;;;;15.13;56.07;103055.22;5134300;27;20046;-61
2022/11/12 09:25:35;;;;;;;12.10;6.95;;;;;;;15.17;56.45;103054.44;5133876;27;20051;-62
2022/11/12 09:28:11;;;;;;;9.68;7.07;;;;;;;15.14;56.91;103059.69;5134255;27;20027;-61
2022/11/12 09:30:40;;;;;;;11.43;7.07;;;;;;;15.26;57.36;103052.03;5134213;27;20031;-62
2022/11/12 09:33:05;;;;;;;11.38;7.47;;;;;;;15.22;55.96;103050.16;5133945;27;20030;-61
2022/11/12 09:35:31;;;;;;;10.38;6.72;;;;;;;14.95;56.50;103044.97;5133927;27;20027;-61
2022/11/12 09:37:58;;;;;;;10.25;7.05;;;;;;;14.93;56.78;103034.25;5133954;27;20106;-61
2022/11/12 09:40:46;;;;;;;10.15;6.93;;;;;;;14.97;56.42;103037.91;5134063;27;20028;-63
2022/11/12 09:43:33;;;;;;;10.13;7.32;;;;;;;14.51;57.18;103036.59;5134201;27;20114;-62
2022/11/12 09:46:26;;;;;;;13.43;6.95;;;;;;;14.48;58.94;103042.75;5133915;27;20062;-62
2022/11/12 09:49:01;;;;;;;10.60;7.05;;;;;;;14.63;58.22;103047.59;5133865;27;20152;-62
2022/11/12 09:51:34;;;;;;;13.93;7.10;;;;;;;14.77;57.71;103040.00;5134096;27;20037;-62
2022/11/12 09:54:26;;;;;;;11.43;7.13;;;;;;;14.97;58.42;103049.47;5133859;27;20493;-62
2022/11/12 09:56:53;;;;;;;12.98;7.45;;;;;;;15.14;57.39;103044.59;5133577;28;20109;-60
2022/11/12 09:59:20;;;;;;;9.40;7.10;;;;;;;15.12;57.51;103045.44;5134151;28;20027;-61
2022/11/12 10:02:05;;;;;;;10.07;7.70;;;;;;;15.27;58.36;103046.72;5133957;27;20023;-62
2022/11/12 10:05:01;;;;;;;10.88;7.20;;;;;;;15.53;57.90;103047.41;5133956;27;20031;-62
2022/11/12 10:08:01;;;;;;;14.27;7.60;;;;;;;15.88;58.06;103042.09;5133644;28;20075;-63
2022/11/12 10:10:47;;;;;;;13.50;7.38;;;;;;;16.37;56.96;103039.66;5134692;27;20031;-61
2022/11/12 10:13:19;;;;;;;10.48;7.20;;;;;;;16.83;54.93;103036.22;5137854;27;20203;-62
2022/11/12 10:19:23;;;;;;;16.23;10.80;;;;;;;17.69;53.70;103021.75;5137179;27;20050;-62
2022/11/12 10:22:01;;;;;;;9.52;6.70;;;;;;;18.05;52.63;103024.09;5137880;27;20031;-62
2022/11/12 10:24:33;;;;;;;10.50;7.30;;;;;;;18.12;50.36;103022.44;5137646;27;20038;-63
2022/11/12 10:26:59;;;;;;;10.38;6.88;;;;;;;18.40;50.59;103019.22;5137489;27;20357;-62
2022/11/12 10:29:48;;;;;;;11.90;7.10;;;;;;;18.48;50.15;103017.53;5137384;27;20019;-63
2022/11/12 10:32:15;;;;;;;10.55;7.18;;;;;;;18.58;48.92;103021.22;5137308;27;20028;-62
2022/11/12 10:34:41;;;;;;;10.75;7.25;;;;;;;18.99;48.54;103019.06;5137480;27;20027;-62
2022/11/12 10:37:10;;;;;;;10.60;7.32;;;;;;;18.96;48.87;103018.13;5137097;27;20392;-62
2022/11/12 10:39:39;;;;;;;11.63;7.50;;;;;;;18.90;48.65;103008.25;5137454;27;20027;-63
2022/11/12 10:42:11;;;;;;;12.50;7.70;;;;;;;18.75;48.34;103017.00;5137403;27;20376;-63
2022/11/12 10:44:37;;;;;;;12.30;7.60;;;;;;;18.88;48.53;103012.69;5137036;27;20034;-62
2022/11/12 10:47:19;;;;;;;11.93;7.47;;;;;;;18.95;49.85;103006.53;5137021;27;20029;-62
2022/11/12 10:50:01;;;;;;;12.48;7.30;;;;;;;19.02;49.28;103004.81;5137196;27;20088;-61
2022/11/12 10:52:27;;;;;;;10.50;7.28;;;;;;;18.50;47.76;102996.16;5135687;27;20120;-62
2022/11/12 10:55:18;;;;;;;10.98;7.22;;;;;;;18.19;49.87;103005.56;5137130;27;20031;-68
2022/11/12 10:57:43;;;;;;;8.73;7.25;;;;;;;18.07;49.29;103008.94;5136476;27;20118;-62
2022/11/12 11:00:12;;;;;;;11.85;8.38;;;;;;;18.00;49.84;103005.31;5136944;27;20058;-62
2022/11/12 11:02:46;;;;;;;13.18;8.32;;;;;;;18.24;50.49;103003.84;5136736;27;20030;-62
2022/11/12 11:05:33;;;;;;;10.50;8.13;;;;;;;18.29;50.04;102996.78;5136692;27;20035;-62
2022/11/12 11:08:00;;;;;;;11.05;7.78;;;;;;;18.37;49.86;102997.78;5136852;27;20025;-62
2022/11/12 11:10:32;;;;;;;10.85;7.68;;;;;;;18.34;49.06;102988.81;5136815;27;20035;-63
2022/11/12 11:13:20;;;;;;;11.45;7.88;;;;;;;18.55;49.07;102986.41;5136660;27;20062;-62
2022/11/12 11:16:03;;;;;;;12.63;7.80;;;;;;;18.83;49.20;102992.09;5136413;27;20026;-62
2022/11/12 11:18:32;;;;;;;9.73;7.40;;;;;;;18.90;47.36;102984.16;5136227;27;20023;-62
2022/11/12 11:21:33;;;;;;;13.75;7.70;;;;;;;19.19;49.05;102991.59;5136415;27;20032;-61
2022/11/12 11:24:01;;;;;;;12.40;8.00;;;;;;;18.97;45.91;102985.09;5119451;27;20035;-62
2022/11/12 11:26:51;;;;;;;10.75;7.57;;;;;;;18.98;48.13;102982.44;5136379;27;20102;-64
2022/11/12 11:29:47;;;;;;;12.05;7.32;;;;;;;19.00;46.87;102980.66;5136246;27;20314;-63
2022/11/12 11:32:18;;;;;;;10.85;7.00;;;;;;;19.09;46.44;102973.59;5136232;27;20023;-63
2022/11/12 11:35:38;;;;;;;12.90;7.85;;;;;;;19.30;48.38;102972.91;5136159;27;20030;-61
2022/11/12 11:38:18;;;;;;;12.27;7.57;;;;;;;19.71;47.18;102975.94;5092886;28;20035;-62
2022/11/12 11:41:04;;;;;;;10.75;7.50;;;;;;;19.51;46.54;102979.34;5135956;27;20080;-63
2022/11/12 11:43:45;;;;;;;12.48;7.95;;;;;;;19.84;45.43;102967.09;5136018;27;20035;-62
2022/11/12 11:46:34;;;;;;;10.45;7.57;;;;;;;20.10;46.11;102963.66;5135925;27;20541;-63
2022/11/12 11:49:21;;;;;;;10.55;7.75;;;;;;;20.56;45.81;102966.56;5136236;27;20388;-63
2022/11/12 11:52:08;;;;;;;10.07;7.93;;;;;;;20.61;44.72;102952.25;5135780;27;20031;-63
2022/11/12 11:55:00;;;;;;;10.50;8.23;;;;;;;20.87;45.17;102948.72;5135742;27;20468;-64